sensor_id;sensor_type;location;lat;lon;timestamp;temperature;humidity
43651;DHT22;29247;50.944;5.382;2023-03-13T00:01:41;12.50;83.10
43651;DHT22;29247;50.944;5.382;2023-03-13T00:04:09;12.50;83.20
43651;DHT22;29247;50.944;5.382;2023-03-13T00:06:37;12.60;83.30
43651;DHT22;29247;50.944;5.382;2023-03-13T00:09:05;12.60;83.40
43651;DHT22;29247;50.944;5.382;2023-03-13T00:11:31;12.60;83.50
43651;DHT22;29247;50.944;5.382;2023-03-13T00:13:59;12.60;83.60
43651;DHT22;29247;50.944;5.382;2023-03-13T00:16:31;12.70;83.70
43651;DHT22;29247;50.944;5.382;2023-03-13T00:18:58;12.70;83.90
43651;DHT22;29247;50.944;5.382;2023-03-13T00:21:27;12.70;84.00
43651;DHT22;29247;50.944;5.382;2023-03-13T00:23:57;12.70;84.30
43651;DHT22;29247;50.944;5.382;2023-03-13T00:26:25;12.70;84.50
43651;DHT22;29247;50.944;5.382;2023-03-13T00:28:51;12.80;84.70
43651;DHT22;29247;50.944;5.382;2023-03-13T00:31:22;12.80;85.00
43651;DHT22;29247;50.944;5.382;2023-03-13T00:33:49;12.80;85.10
43651;DHT22;29247;50.944;5.382;2023-03-13T00:36:29;12.80;85.30
43651;DHT22;29247;50.944;5.382;2023-03-13T00:38:58;12.80;85.60
43651;DHT22;29247;50.944;5.382;2023-03-13T00:41:31;12.80;85.80
43651;DHT22;29247;50.944;5.382;2023-03-13T00:43:59;12.80;86.00
43651;DHT22;29247;50.944;5.382;2023-03-13T00:46:29;12.70;86.10
43651;DHT22;29247;50.944;5.382;2023-03-13T00:48:55;12.80;86.40
43651;DHT22;29247;50.944;5.382;2023-03-13T00:51:27;12.80;86.60
43651;DHT22;29247;50.944;5.382;2023-03-13T00:53:55;12.70;86.80
43651;DHT22;29247;50.944;5.382;2023-03-13T00:56:21;12.70;86.90
43651;DHT22;29247;50.944;5.382;2023-03-13T00:58:48;12.70;87.10
43651;DHT22;29247;50.944;5.382;2023-03-13T01:01:28;12.70;88.00
43651;DHT22;29247;50.944;5.382;2023-03-13T01:03:59;12.70;87.50
43651;DHT22;29247;50.944;5.382;2023-03-13T01:06:27;12.70;87.50
43651;DHT22;29247;50.944;5.382;2023-03-13T01:08:57;12.70;87.60
43651;DHT22;29247;50.944;5.382;2023-03-13T01:11:25;12.70;87.90
43651;DHT22;29247;50.944;5.382;2023-03-13T01:13:56;12.70;88.00
43651;DHT22;29247;50.944;5.382;2023-03-13T01:16:24;12.70;88.20
43651;DHT22;29247;50.944;5.382;2023-03-13T01:18:55;12.70;88.20
43651;DHT22;29247;50.944;5.382;2023-03-13T01:21:24;12.70;88.40
43651;DHT22;29247;50.944;5.382;2023-03-13T01:23:53;12.70;88.50
43651;DHT22;29247;50.944;5.382;2023-03-13T01:26:20;12.70;88.80
43651;DHT22;29247;50.944;5.382;2023-03-13T01:28:46;12.70;88.90
43651;DHT22;29247;50.944;5.382;2023-03-13T01:31:24;12.70;89.00
43651;DHT22;29247;50.944;5.382;2023-03-13T01:33:54;12.70;89.20
43651;DHT22;29247;50.944;5.382;2023-03-13T01:36:20;12.70;89.30
43651;DHT22;29247;50.944;5.382;2023-03-13T01:38:53;12.70;89.40
43651;DHT22;29247;50.944;5.382;2023-03-13T01:41:23;12.70;89.60
43651;DHT22;29247;50.944;5.382;2023-03-13T01:43:52;12.70;89.80
43651;DHT22;29247;50.944;5.382;2023-03-13T01:46:21;12.70;89.90
43651;DHT22;29247;50.944;5.382;2023-03-13T01:51:43;12.70;90.00
43651;DHT22;29247;50.944;5.382;2023-03-13T01:54:14;12.70;90.00
43651;DHT22;29247;50.944;5.382;2023-03-13T01:56:47;12.70;90.10
43651;DHT22;29247;50.944;5.382;2023-03-13T01:59:23;12.70;90.10
43651;DHT22;29247;50.944;5.382;2023-03-13T02:01:57;12.70;90.20
43651;DHT22;29247;50.944;5.382;2023-03-13T02:04:26;12.70;90.20
43651;DHT22;29247;50.944;5.382;2023-03-13T02:06:58;12.70;90.30
43651;DHT22;29247;50.944;5.382;2023-03-13T02:09:26;12.70;90.40
43651;DHT22;29247;50.944;5.382;2023-03-13T02:14:27;12.70;90.50
43651;DHT22;29247;50.944;5.382;2023-03-13T02:16:55;12.70;90.50
43651;DHT22;29247;50.944;5.382;2023-03-13T02:19:41;12.70;90.50
43651;DHT22;29247;50.944;5.382;2023-03-13T02:27:42;12.80;90.70
43651;DHT22;29247;50.944;5.382;2023-03-13T02:30:13;12.80;90.70
43651;DHT22;29247;50.944;5.382;2023-03-13T02:32:40;12.80;90.70
43651;DHT22;29247;50.944;5.382;2023-03-13T02:35:08;12.80;90.80
43651;DHT22;29247;50.944;5.382;2023-03-13T02:37:34;12.80;90.80
43651;DHT22;29247;50.944;5.382;2023-03-13T02:40:07;12.90;90.90
43651;DHT22;29247;50.944;5.382;2023-03-13T02:42:38;12.90;91.00
43651;DHT22;29247;50.944;5.382;2023-03-13T02:45:08;12.90;91.00
43651;DHT22;29247;50.944;5.382;2023-03-13T02:47:36;12.90;90.90
43651;DHT22;29247;50.944;5.382;2023-03-13T02:50:04;12.90;91.00
43651;DHT22;29247;50.944;5.382;2023-03-13T02:52:33;12.90;91.00
43651;DHT22;29247;50.944;5.382;2023-03-13T02:55:08;12.90;91.40
43651;DHT22;29247;50.944;5.382;2023-03-13T02:57:35;12.90;91.10
43651;DHT22;29247;50.944;5.382;2023-03-13T03:00:01;13.00;91.10
43651;DHT22;29247;50.944;5.382;2023-03-13T03:02:29;13.00;91.10
43651;DHT22;29247;50.944;5.382;2023-03-13T03:04:55;13.00;91.10
43651;DHT22;29247;50.944;5.382;2023-03-13T03:07:23;13.00;91.20
43651;DHT22;29247;50.944;5.382;2023-03-13T03:09:49;13.00;91.20
43651;DHT22;29247;50.944;5.382;2023-03-13T03:12:15;13.00;91.20
43651;DHT22;29247;50.944;5.382;2023-03-13T03:14:43;13.10;91.60
43651;DHT22;29247;50.944;5.382;2023-03-13T03:17:08;13.10;91.20
43651;DHT22;29247;50.944;5.382;2023-03-13T03:19:34;13.10;91.20
43651;DHT22;29247;50.944;5.382;2023-03-13T03:21:59;13.10;91.30
43651;DHT22;29247;50.944;5.382;2023-03-13T03:24:27;13.10;91.30
43651;DHT22;29247;50.944;5.382;2023-03-13T03:26:53;13.20;91.30
43651;DHT22;29247;50.944;5.382;2023-03-13T03:29:19;13.20;91.30
43651;DHT22;29247;50.944;5.382;2023-03-13T03:31:47;13.20;91.40
43651;DHT22;29247;50.944;5.382;2023-03-13T03:34:15;13.20;91.40
43651;DHT22;29247;50.944;5.382;2023-03-13T03:36:41;13.20;91.40
43651;DHT22;29247;50.944;5.382;2023-03-13T03:39:06;13.20;91.40
43651;DHT22;29247;50.944;5.382;2023-03-13T03:41:35;13.20;91.40
43651;DHT22;29247;50.944;5.382;2023-03-13T03:44:02;13.30;91.60
43651;DHT22;29247;50.944;5.382;2023-03-13T03:46:30;13.20;91.50
43651;DHT22;29247;50.944;5.382;2023-03-13T03:48:56;13.30;91.50
43651;DHT22;29247;50.944;5.382;2023-03-13T03:51:24;13.30;91.50
43651;DHT22;29247;50.944;5.382;2023-03-13T03:53:50;13.30;91.50
43651;DHT22;29247;50.944;5.382;2023-03-13T03:56:16;13.30;91.60
43651;DHT22;29247;50.944;5.382;2023-03-13T03:58:41;13.30;91.60
43651;DHT22;29247;50.944;5.382;2023-03-13T04:01:07;13.40;91.70
43651;DHT22;29247;50.944;5.382;2023-03-13T04:03:33;13.40;91.70
43651;DHT22;29247;50.944;5.382;2023-03-13T04:06:01;13.40;91.70
43651;DHT22;29247;50.944;5.382;2023-03-13T04:08:32;13.40;91.70
43651;DHT22;29247;50.944;5.382;2023-03-13T04:11:00;13.50;91.80
43651;DHT22;29247;50.944;5.382;2023-03-13T04:13:27;13.50;91.70
43651;DHT22;29247;50.944;5.382;2023-03-13T04:15:55;13.50;91.70
43651;DHT22;29247;50.944;5.382;2023-03-13T04:18:20;13.50;91.70
43651;DHT22;29247;50.944;5.382;2023-03-13T04:20:48;13.50;91.80
43651;DHT22;29247;50.944;5.382;2023-03-13T04:23:16;13.60;91.80
43651;DHT22;29247;50.944;5.382;2023-03-13T04:25:42;13.60;91.80
43651;DHT22;29247;50.944;5.382;2023-03-13T04:28:07;13.60;91.80
43651;DHT22;29247;50.944;5.382;2023-03-13T04:30:36;13.70;91.80
43651;DHT22;29247;50.944;5.382;2023-03-13T04:33:01;13.70;91.80
43651;DHT22;29247;50.944;5.382;2023-03-13T04:35:27;13.70;91.80
43651;DHT22;29247;50.944;5.382;2023-03-13T04:37:53;13.70;91.80
43651;DHT22;29247;50.944;5.382;2023-03-13T04:40:18;13.70;91.70
43651;DHT22;29247;50.944;5.382;2023-03-13T04:42:46;13.80;91.80
43651;DHT22;29247;50.944;5.382;2023-03-13T04:45:15;13.70;91.70
43651;DHT22;29247;50.944;5.382;2023-03-13T04:47:43;13.80;91.70
43651;DHT22;29247;50.944;5.382;2023-03-13T04:50:12;13.80;91.60
43651;DHT22;29247;50.944;5.382;2023-03-13T04:52:38;13.80;91.60
43651;DHT22;29247;50.944;5.382;2023-03-13T04:55:08;13.80;91.70
43651;DHT22;29247;50.944;5.382;2023-03-13T04:57:33;13.80;91.60
43651;DHT22;29247;50.944;5.382;2023-03-13T05:00:02;13.80;91.60
43651;DHT22;29247;50.944;5.382;2023-03-13T05:02:34;13.90;91.60
43651;DHT22;29247;50.944;5.382;2023-03-13T05:05:00;13.90;91.50
43651;DHT22;29247;50.944;5.382;2023-03-13T05:07:26;13.90;91.50
43651;DHT22;29247;50.944;5.382;2023-03-13T05:09:51;13.90;91.50
43651;DHT22;29247;50.944;5.382;2023-03-13T05:12:17;13.90;91.50
43651;DHT22;29247;50.944;5.382;2023-03-13T05:14:43;13.90;91.40
43651;DHT22;29247;50.944;5.382;2023-03-13T05:17:08;13.90;91.40
43651;DHT22;29247;50.944;5.382;2023-03-13T05:19:35;13.90;91.30
43651;DHT22;29247;50.944;5.382;2023-03-13T05:22:03;14.00;91.30
43651;DHT22;29247;50.944;5.382;2023-03-13T05:24:31;14.00;91.20
43651;DHT22;29247;50.944;5.382;2023-03-13T05:26:58;14.00;91.20
43651;DHT22;29247;50.944;5.382;2023-03-13T05:29:23;14.00;91.20
43651;DHT22;29247;50.944;5.382;2023-03-13T05:31:49;14.00;91.10
43651;DHT22;29247;50.944;5.382;2023-03-13T05:34:14;14.00;91.10
43651;DHT22;29247;50.944;5.382;2023-03-13T05:36:40;14.00;91.10
43651;DHT22;29247;50.944;5.382;2023-03-13T05:39:06;14.00;91.00
43651;DHT22;29247;50.944;5.382;2023-03-13T05:41:31;14.10;91.00
43651;DHT22;29247;50.944;5.382;2023-03-13T05:43:57;14.10;91.00
43651;DHT22;29247;50.944;5.382;2023-03-13T05:46:23;14.00;91.00
43651;DHT22;29247;50.944;5.382;2023-03-13T05:48:51;14.10;90.90
43651;DHT22;29247;50.944;5.382;2023-03-13T05:51:17;14.10;90.80
43651;DHT22;29247;50.944;5.382;2023-03-13T05:53:44;14.10;90.80
43651;DHT22;29247;50.944;5.382;2023-03-13T05:56:12;14.10;90.70
43651;DHT22;29247;50.944;5.382;2023-03-13T05:58:37;14.10;90.70
43651;DHT22;29247;50.944;5.382;2023-03-13T06:01:11;14.10;90.60
43651;DHT22;29247;50.944;5.382;2023-03-13T06:03:37;14.10;90.60
43651;DHT22;29247;50.944;5.382;2023-03-13T06:06:06;14.10;90.50
43651;DHT22;29247;50.944;5.382;2023-03-13T06:08:36;14.10;90.40
43651;DHT22;29247;50.944;5.382;2023-03-13T06:11:02;14.10;90.40
43651;DHT22;29247;50.944;5.382;2023-03-13T06:13:28;14.10;90.30
43651;DHT22;29247;50.944;5.382;2023-03-13T06:15:55;14.10;90.30
43651;DHT22;29247;50.944;5.382;2023-03-13T06:18:22;14.20;90.30
43651;DHT22;29247;50.944;5.382;2023-03-13T06:20:58;14.20;90.30
43651;DHT22;29247;50.944;5.382;2023-03-13T06:23:29;14.20;90.20
43651;DHT22;29247;50.944;5.382;2023-03-13T06:25:55;14.20;90.10
43651;DHT22;29247;50.944;5.382;2023-03-13T06:28:20;14.20;90.00
43651;DHT22;29247;50.944;5.382;2023-03-13T06:30:49;14.20;90.00
43651;DHT22;29247;50.944;5.382;2023-03-13T06:33:17;14.20;90.00
43651;DHT22;29247;50.944;5.382;2023-03-13T06:35:43;14.20;89.90
43651;DHT22;29247;50.944;5.382;2023-03-13T06:38:12;14.20;89.90
43651;DHT22;29247;50.944;5.382;2023-03-13T06:40:40;14.20;89.60
43651;DHT22;29247;50.944;5.382;2023-03-13T06:43:08;14.30;89.50
43651;DHT22;29247;50.944;5.382;2023-03-13T06:45:35;14.30;89.40
43651;DHT22;29247;50.944;5.382;2023-03-13T06:48:06;14.30;89.30
43651;DHT22;29247;50.944;5.382;2023-03-13T06:50:32;14.30;89.20
43651;DHT22;29247;50.944;5.382;2023-03-13T06:53:00;14.30;89.00
43651;DHT22;29247;50.944;5.382;2023-03-13T06:55:28;14.40;88.90
43651;DHT22;29247;50.944;5.382;2023-03-13T06:58:01;14.40;88.70
43651;DHT22;29247;50.944;5.382;2023-03-13T07:00:27;14.40;88.40
43651;DHT22;29247;50.944;5.382;2023-03-13T07:02:53;14.40;88.20
43651;DHT22;29247;50.944;5.382;2023-03-13T07:05:20;14.40;87.90
43651;DHT22;29247;50.944;5.382;2023-03-13T07:07:47;14.40;87.80
43651;DHT22;29247;50.944;5.382;2023-03-13T07:10:16;14.50;87.80
43651;DHT22;29247;50.944;5.382;2023-03-13T07:12:41;14.50;87.70
43651;DHT22;29247;50.944;5.382;2023-03-13T07:15:12;14.50;87.50
43651;DHT22;29247;50.944;5.382;2023-03-13T07:17:40;14.50;87.40
43651;DHT22;29247;50.944;5.382;2023-03-13T07:20:06;14.40;87.20
43651;DHT22;29247;50.944;5.382;2023-03-13T07:22:38;14.50;87.10
43651;DHT22;29247;50.944;5.382;2023-03-13T07:25:04;14.50;87.00
43651;DHT22;29247;50.944;5.382;2023-03-13T07:27:33;14.50;87.00
43651;DHT22;29247;50.944;5.382;2023-03-13T07:30:02;14.50;86.80
43651;DHT22;29247;50.944;5.382;2023-03-13T07:32:31;14.50;86.70
43651;DHT22;29247;50.944;5.382;2023-03-13T07:35:00;14.50;86.60
43651;DHT22;29247;50.944;5.382;2023-03-13T07:37:28;14.60;86.50
43651;DHT22;29247;50.944;5.382;2023-03-13T07:39:56;14.60;86.40
43651;DHT22;29247;50.944;5.382;2023-03-13T07:42:22;14.60;86.40
43651;DHT22;29247;50.944;5.382;2023-03-13T07:44:52;14.60;86.30
43651;DHT22;29247;50.944;5.382;2023-03-13T07:47:18;14.70;86.30
43651;DHT22;29247;50.944;5.382;2023-03-13T07:49:44;14.70;86.20
43651;DHT22;29247;50.944;5.382;2023-03-13T07:52:13;14.70;86.10
43651;DHT22;29247;50.944;5.382;2023-03-13T07:54:39;14.70;85.90
43651;DHT22;29247;50.944;5.382;2023-03-13T07:57:07;14.80;85.90
43651;DHT22;29247;50.944;5.382;2023-03-13T07:59:35;14.80;85.70
43651;DHT22;29247;50.944;5.382;2023-03-13T08:02:02;14.80;85.50
43651;DHT22;29247;50.944;5.382;2023-03-13T08:04:27;14.80;85.40
43651;DHT22;29247;50.944;5.382;2023-03-13T08:06:53;14.80;85.30
43651;DHT22;29247;50.944;5.382;2023-03-13T08:09:20;14.80;85.30
43651;DHT22;29247;50.944;5.382;2023-03-13T08:11:45;14.90;85.20
43651;DHT22;29247;50.944;5.382;2023-03-13T08:14:14;14.90;85.30
43651;DHT22;29247;50.944;5.382;2023-03-13T08:16:42;14.90;85.30
43651;DHT22;29247;50.944;5.382;2023-03-13T08:19:09;14.90;85.50
43651;DHT22;29247;50.944;5.382;2023-03-13T08:21:37;15.00;85.40
43651;DHT22;29247;50.944;5.382;2023-03-13T08:24:09;15.00;85.30
43651;DHT22;29247;50.944;5.382;2023-03-13T08:26:38;15.10;85.30
43651;DHT22;29247;50.944;5.382;2023-03-13T08:29:08;15.10;85.30
43651;DHT22;29247;50.944;5.382;2023-03-13T08:31:36;15.20;85.10
43651;DHT22;29247;50.944;5.382;2023-03-13T08:34:04;15.20;85.20
43651;DHT22;29247;50.944;5.382;2023-03-13T08:36:34;15.20;85.10
43651;DHT22;29247;50.944;5.382;2023-03-13T08:39:12;15.20;85.20
43651;DHT22;29247;50.944;5.382;2023-03-13T08:41:42;15.20;85.20
43651;DHT22;29247;50.944;5.382;2023-03-13T08:44:12;15.30;85.30
43651;DHT22;29247;50.944;5.382;2023-03-13T08:46:40;15.30;85.10
43651;DHT22;29247;50.944;5.382;2023-03-13T08:49:09;15.30;84.90
43651;DHT22;29247;50.944;5.382;2023-03-13T08:51:38;15.40;85.20
43651;DHT22;29247;50.944;5.382;2023-03-13T08:54:09;15.40;85.10
43651;DHT22;29247;50.944;5.382;2023-03-13T08:56:37;15.40;85.00
43651;DHT22;29247;50.944;5.382;2023-03-13T08:59:06;15.50;85.10
43651;DHT22;29247;50.944;5.382;2023-03-13T09:01:33;15.60;85.20
43651;DHT22;29247;50.944;5.382;2023-03-13T09:03:59;15.70;85.30
43651;DHT22;29247;50.944;5.382;2023-03-13T09:06:28;15.80;85.10
43651;DHT22;29247;50.944;5.382;2023-03-13T09:08:55;15.90;84.90
43651;DHT22;29247;50.944;5.382;2023-03-13T09:11:24;16.00;84.60
43651;DHT22;29247;50.944;5.382;2023-03-13T09:13:50;16.00;84.20
43651;DHT22;29247;50.944;5.382;2023-03-13T09:16:21;16.00;83.90
43651;DHT22;29247;50.944;5.382;2023-03-13T09:18:48;16.10;83.70
43651;DHT22;29247;50.944;5.382;2023-03-13T09:21:19;16.20;83.60
43651;DHT22;29247;50.944;5.382;2023-03-13T09:23:46;16.20;83.20
43651;DHT22;29247;50.944;5.382;2023-03-13T09:26:12;16.20;83.00
43651;DHT22;29247;50.944;5.382;2023-03-13T09:28:39;16.30;82.90
43651;DHT22;29247;50.944;5.382;2023-03-13T09:31:12;16.30;82.50
43651;DHT22;29247;50.944;5.382;2023-03-13T09:33:39;16.30;82.30
43651;DHT22;29247;50.944;5.382;2023-03-13T09:36:09;16.30;82.20
43651;DHT22;29247;50.944;5.382;2023-03-13T09:38:35;16.40;82.40
43651;DHT22;29247;50.944;5.382;2023-03-13T09:43:59;16.40;82.30
43651;DHT22;29247;50.944;5.382;2023-03-13T09:52:17;16.60;81.80
43651;DHT22;29247;50.944;5.382;2023-03-13T10:00:13;16.70;81.50
43651;DHT22;29247;50.944;5.382;2023-03-13T10:02:46;16.70;81.30
43651;DHT22;29247;50.944;5.382;2023-03-13T10:05:20;16.80;81.10
43651;DHT22;29247;50.944;5.382;2023-03-13T10:07:46;16.80;80.60
43651;DHT22;29247;50.944;5.382;2023-03-13T10:13:38;16.90;80.20
43651;DHT22;29247;50.944;5.382;2023-03-13T10:16:07;16.90;79.60
43651;DHT22;29247;50.944;5.382;2023-03-13T10:18:36;16.90;79.70
43651;DHT22;29247;50.944;5.382;2023-03-13T10:21:20;16.90;80.30
43651;DHT22;29247;50.944;5.382;2023-03-13T10:26:26;16.90;79.30
43651;DHT22;29247;50.944;5.382;2023-03-13T10:28:56;17.00;79.40
43651;DHT22;29247;50.944;5.382;2023-03-13T10:33:50;17.00;78.80
43651;DHT22;29247;50.944;5.382;2023-03-13T10:36:16;16.90;78.60
43651;DHT22;29247;50.944;5.382;2023-03-13T10:38:53;17.00;78.70
43651;DHT22;29247;50.944;5.382;2023-03-13T10:41:26;16.90;78.70
43651;DHT22;29247;50.944;5.382;2023-03-13T10:43:58;17.00;79.60
43651;DHT22;29247;50.944;5.382;2023-03-13T10:46:30;17.10;80.20
43651;DHT22;29247;50.944;5.382;2023-03-13T10:49:00;17.30;80.00
43651;DHT22;29247;50.944;5.382;2023-03-13T10:51:37;17.50;78.30
43651;DHT22;29247;50.944;5.382;2023-03-13T10:54:36;17.60;77.40
43651;DHT22;29247;50.944;5.382;2023-03-13T10:59:51;17.70;75.90
43651;DHT22;29247;50.944;5.382;2023-03-13T11:02:39;17.70;75.90
43651;DHT22;29247;50.944;5.382;2023-03-13T11:07:51;17.70;75.60
43651;DHT22;29247;50.944;5.382;2023-03-13T11:12:48;17.90;76.60
43651;DHT22;29247;50.944;5.382;2023-03-13T11:15:19;18.10;76.40
43651;DHT22;29247;50.944;5.382;2023-03-13T11:17:58;18.20;75.20
43651;DHT22;29247;50.944;5.382;2023-03-13T11:20:32;18.30;74.20
43651;DHT22;29247;50.944;5.382;2023-03-13T11:31:08;18.40;71.40
43651;DHT22;29247;50.944;5.382;2023-03-13T11:39:41;18.40;70.50
43651;DHT22;29247;50.944;5.382;2023-03-13T11:49:08;18.30;69.90
43651;DHT22;29247;50.944;5.382;2023-03-13T12:04:57;18.30;70.80
43651;DHT22;29247;50.944;5.382;2023-03-13T12:10:04;18.60;70.60
43651;DHT22;29247;50.944;5.382;2023-03-13T12:12:43;18.70;69.80
43651;DHT22;29247;50.944;5.382;2023-03-13T12:15:17;18.80;69.60
43651;DHT22;29247;50.944;5.382;2023-03-13T12:18:48;18.80;69.70
43651;DHT22;29247;50.944;5.382;2023-03-13T12:20:43;18.90;68.80
43651;DHT22;29247;50.944;5.382;2023-03-13T12:23:56;18.90;68.30
43651;DHT22;29247;50.944;5.382;2023-03-13T12:26:50;18.90;67.70
43651;DHT22;29247;50.944;5.382;2023-03-13T12:31:59;18.80;67.60
43651;DHT22;29247;50.944;5.382;2023-03-13T12:40:04;18.80;67.90
43651;DHT22;29247;50.944;5.382;2023-03-13T12:42:41;18.80;68.10
43651;DHT22;29247;50.944;5.382;2023-03-13T12:45:16;18.80;68.80
43651;DHT22;29247;50.944;5.382;2023-03-13T12:47:53;18.80;68.30
43651;DHT22;29247;50.944;5.382;2023-03-13T12:50:58;18.90;68.80
43651;DHT22;29247;50.944;5.382;2023-03-13T12:56:34;18.90;67.90
43651;DHT22;29247;50.944;5.382;2023-03-13T12:59:04;18.80;67.80
43651;DHT22;29247;50.944;5.382;2023-03-13T13:01:53;18.80;67.90
43651;DHT22;29247;50.944;5.382;2023-03-13T13:04:26;18.70;68.20
43651;DHT22;29247;50.944;5.382;2023-03-13T13:07:21;18.70;68.20
43651;DHT22;29247;50.944;5.382;2023-03-13T13:12:39;18.70;68.50
43651;DHT22;29247;50.944;5.382;2023-03-13T13:15:22;18.70;68.60
43651;DHT22;29247;50.944;5.382;2023-03-13T13:17:50;18.60;68.90
43651;DHT22;29247;50.944;5.382;2023-03-13T13:22:55;18.50;69.40
43651;DHT22;29247;50.944;5.382;2023-03-13T13:25:27;18.60;69.60
43651;DHT22;29247;50.944;5.382;2023-03-13T13:27:54;18.60;70.10
43651;DHT22;29247;50.944;5.382;2023-03-13T13:33:14;18.60;69.50
43651;DHT22;29247;50.944;5.382;2023-03-13T13:35:35;18.60;69.30
43651;DHT22;29247;50.944;5.382;2023-03-13T13:43:47;18.60;67.90
43651;DHT22;29247;50.944;5.382;2023-03-13T13:46:30;18.60;67.60
43651;DHT22;29247;50.944;5.382;2023-03-13T13:51:29;18.60;67.30
43651;DHT22;29247;50.944;5.382;2023-03-13T13:53:58;18.60;67.30
43651;DHT22;29247;50.944;5.382;2023-03-13T13:59:12;18.50;67.30
43651;DHT22;29247;50.944;5.382;2023-03-13T14:01:41;18.60;67.40
43651;DHT22;29247;50.944;5.382;2023-03-13T14:04:18;18.60;67.50
43651;DHT22;29247;50.944;5.382;2023-03-13T14:06:49;18.60;67.50
43651;DHT22;29247;50.944;5.382;2023-03-13T14:12:28;18.60;67.40
43651;DHT22;29247;50.944;5.382;2023-03-13T14:22:49;18.80;68.30
43651;DHT22;29247;50.944;5.382;2023-03-13T14:25:18;18.80;67.50
43651;DHT22;29247;50.944;5.382;2023-03-13T14:27:47;18.80;67.00
43651;DHT22;29247;50.944;5.382;2023-03-13T14:30:16;18.70;66.60
43651;DHT22;29247;50.944;5.382;2023-03-13T14:32:42;18.70;66.50
43651;DHT22;29247;50.944;5.382;2023-03-13T14:35:10;18.60;66.10
43651;DHT22;29247;50.944;5.382;2023-03-13T14:37:41;18.50;65.80
43651;DHT22;29247;50.944;5.382;2023-03-13T14:40:30;18.50;65.80
43651;DHT22;29247;50.944;5.382;2023-03-13T14:42:57;18.50;65.90
43651;DHT22;29247;50.944;5.382;2023-03-13T14:45:32;18.50;65.80
43651;DHT22;29247;50.944;5.382;2023-03-13T14:48:33;18.50;65.60
43651;DHT22;29247;50.944;5.382;2023-03-13T14:51:15;18.50;65.50
43651;DHT22;29247;50.944;5.382;2023-03-13T14:53:55;18.40;65.70
43651;DHT22;29247;50.944;5.382;2023-03-13T14:56:31;18.50;66.10
43651;DHT22;29247;50.944;5.382;2023-03-13T15:01:38;18.50;66.00
43651;DHT22;29247;50.944;5.382;2023-03-13T15:04:06;18.50;65.70
43651;DHT22;29247;50.944;5.382;2023-03-13T15:06:32;18.60;65.80
43651;DHT22;29247;50.944;5.382;2023-03-13T15:09:17;18.50;65.60
43651;DHT22;29247;50.944;5.382;2023-03-13T15:11:54;18.50;64.70
43651;DHT22;29247;50.944;5.382;2023-03-13T15:14:40;18.50;64.50
43651;DHT22;29247;50.944;5.382;2023-03-13T15:17:21;18.50;64.30
43651;DHT22;29247;50.944;5.382;2023-03-13T15:19:57;18.40;64.20
43651;DHT22;29247;50.944;5.382;2023-03-13T15:22:30;18.40;64.30
43651;DHT22;29247;50.944;5.382;2023-03-13T15:24:57;18.40;64.10
43651;DHT22;29247;50.944;5.382;2023-03-13T15:27:27;18.30;63.60
43651;DHT22;29247;50.944;5.382;2023-03-13T15:29:56;18.30;63.80
43651;DHT22;29247;50.944;5.382;2023-03-13T15:32:30;18.20;63.90
43651;DHT22;29247;50.944;5.382;2023-03-13T15:34:59;18.20;63.80
43651;DHT22;29247;50.944;5.382;2023-03-13T15:37:29;18.20;64.00
43651;DHT22;29247;50.944;5.382;2023-03-13T15:39:57;18.10;64.30
43651;DHT22;29247;50.944;5.382;2023-03-13T15:42:26;18.10;64.30
43651;DHT22;29247;50.944;5.382;2023-03-13T15:44:52;18.10;64.50
43651;DHT22;29247;50.944;5.382;2023-03-13T15:47:20;18.10;64.60
43651;DHT22;29247;50.944;5.382;2023-03-13T15:49:46;18.00;64.60
43651;DHT22;29247;50.944;5.382;2023-03-13T15:52:17;18.00;64.70
43651;DHT22;29247;50.944;5.382;2023-03-13T15:54:47;18.00;64.80
43651;DHT22;29247;50.944;5.382;2023-03-13T15:57:23;18.00;64.80
43651;DHT22;29247;50.944;5.382;2023-03-13T15:59:53;17.90;64.90
43651;DHT22;29247;50.944;5.382;2023-03-13T16:02:22;17.90;65.00
43651;DHT22;29247;50.944;5.382;2023-03-13T16:04:50;17.80;65.20
43651;DHT22;29247;50.944;5.382;2023-03-13T16:07:19;17.80;65.20
43651;DHT22;29247;50.944;5.382;2023-03-13T16:09:48;17.80;65.10
43651;DHT22;29247;50.944;5.382;2023-03-13T16:12:16;17.80;65.00
43651;DHT22;29247;50.944;5.382;2023-03-13T16:14:42;17.70;64.90
43651;DHT22;29247;50.944;5.382;2023-03-13T16:17:18;17.70;65.00
43651;DHT22;29247;50.944;5.382;2023-03-13T16:19:49;17.60;65.00
43651;DHT22;29247;50.944;5.382;2023-03-13T16:22:17;17.60;64.90
43651;DHT22;29247;50.944;5.382;2023-03-13T16:24:44;17.60;65.00
43651;DHT22;29247;50.944;5.382;2023-03-13T16:27:17;17.50;64.80
43651;DHT22;29247;50.944;5.382;2023-03-13T16:29:45;17.50;64.80
43651;DHT22;29247;50.944;5.382;2023-03-13T16:32:14;17.50;64.70
43651;DHT22;29247;50.944;5.382;2023-03-13T16:34:43;17.40;64.70
43651;DHT22;29247;50.944;5.382;2023-03-13T16:37:16;17.40;64.70
43651;DHT22;29247;50.944;5.382;2023-03-13T16:39:45;17.30;64.80
43651;DHT22;29247;50.944;5.382;2023-03-13T16:42:15;17.30;64.90
43651;DHT22;29247;50.944;5.382;2023-03-13T16:44:42;17.20;64.80
43651;DHT22;29247;50.944;5.382;2023-03-13T16:47:27;17.20;64.80
43651;DHT22;29247;50.944;5.382;2023-03-13T16:49:53;17.10;64.80
43651;DHT22;29247;50.944;5.382;2023-03-13T16:52:24;17.10;64.80
43651;DHT22;29247;50.944;5.382;2023-03-13T16:54:50;17.10;64.60
43651;DHT22;29247;50.944;5.382;2023-03-13T16:57:23;17.00;64.40
43651;DHT22;29247;50.944;5.382;2023-03-13T16:59:49;17.00;64.30
43651;DHT22;29247;50.944;5.382;2023-03-13T17:02:19;16.90;64.30
43651;DHT22;29247;50.944;5.382;2023-03-13T17:04:47;16.90;64.40
43651;DHT22;29247;50.944;5.382;2023-03-13T17:07:24;16.80;64.50
43651;DHT22;29247;50.944;5.382;2023-03-13T17:09:54;16.80;64.50
43651;DHT22;29247;50.944;5.382;2023-03-13T17:12:20;16.80;64.60
43651;DHT22;29247;50.944;5.382;2023-03-13T17:14:46;16.70;64.70
43651;DHT22;29247;50.944;5.382;2023-03-13T17:17:17;16.70;64.80
43651;DHT22;29247;50.944;5.382;2023-03-13T17:19:44;16.70;64.80
43651;DHT22;29247;50.944;5.382;2023-03-13T17:22:14;16.60;64.70
43651;DHT22;29247;50.944;5.382;2023-03-13T17:24:41;16.60;64.80
43651;DHT22;29247;50.944;5.382;2023-03-13T17:27:16;16.50;64.80
43651;DHT22;29247;50.944;5.382;2023-03-13T17:29:44;16.50;64.90
43651;DHT22;29247;50.944;5.382;2023-03-13T17:32:11;16.40;64.90
43651;DHT22;29247;50.944;5.382;2023-03-13T17:34:37;16.40;65.00
43651;DHT22;29247;50.944;5.382;2023-03-13T17:37:19;16.40;65.10
43651;DHT22;29247;50.944;5.382;2023-03-13T17:39:46;16.30;65.30
43651;DHT22;29247;50.944;5.382;2023-03-13T17:42:16;16.30;65.50
43651;DHT22;29247;50.944;5.382;2023-03-13T17:44:42;16.30;65.70
43651;DHT22;29247;50.944;5.382;2023-03-13T17:47:16;16.20;65.80
43651;DHT22;29247;50.944;5.382;2023-03-13T17:49:45;16.20;66.10